Time;durP1;ratioP1;P1;durP2;ratioP2;P2;SDS_P1;SDS_P2;PMS_P1;PMS_P2;Temp;Humidity;BMP_temperature;BMP_pressure;BME280_temperature;BME280_humidity;BME280_pressure;Samples;Min_cycle;Max_cycle;Signal;HPM_P1;HPM_P2
2023/05/21 00:01:36;;;;;;;17.33;12.65;;;;;;;;;;4981917;28;20089;-40
2023/05/21 00:04:02;;;;;;;16.05;12.82;;;;;;;;;;4987143;28;20032;-40
2023/05/21 00:06:27;;;;;;;14.50;12.82;;;;;;;;;;4983324;28;20034;-40
2023/05/21 00:08:53;;;;;;;18.48;11.88;;;;;;;;;;4982008;28;20066;-40
2023/05/21 00:11:18;;;;;;;15.02;12.77;;;;;;;;;;4982200;28;20042;-40
2023/05/21 00:13:43;;;;;;;15.85;12.52;;;;;;;;;;4982816;28;20039;-40
2023/05/21 00:16:10;;;;;;;13.88;11.93;;;;;;;;;;4982995;28;20058;-41
2023/05/21 00:18:38;;;;;;;19.95;11.88;;;;;;;;;;4981628;28;20030;-42
2023/05/21 00:21:03;;;;;;;14.15;11.25;;;;;;;;;;4980003;28;20929;-41
2023/05/21 00:23:31;;;;;;;12.45;11.25;;;;;;;;;;4984324;28;20046;-40
2023/05/21 00:25:57;;;;;;;11.95;10.73;;;;;;;;;;4979683;28;20350;-40
2023/05/21 00:28:22;;;;;;;12.60;10.52;;;;;;;;;;4981358;28;20157;-42
2023/05/21 00:30:48;;;;;;;11.18;10.18;;;;;;;;;;4982523;28;20056;-44
2023/05/21 00:33:13;;;;;;;11.27;10.15;;;;;;;;;;4986445;28;20077;-41
2023/05/21 00:35:39;;;;;;;11.65;10.45;;;;;;;;;;4985732;28;20038;-46
2023/05/21 00:38:06;;;;;;;13.10;10.07;;;;;;;;;;4987150;28;20539;-41
2023/05/21 00:40:32;;;;;;;11.43;10.20;;;;;;;;;;4981682;28;20051;-40
2023/05/21 00:42:57;;;;;;;14.07;10.38;;;;;;;;;;4985195;28;20438;-40
2023/05/21 00:45:25;;;;;;;14.73;10.77;;;;;;;;;;4985552;28;20391;-40
2023/05/21 00:47:53;;;;;;;12.98;11.10;;;;;;;;;;4986695;28;20106;-42
2023/05/21 00:50:21;;;;;;;14.95;11.50;;;;;;;;;;4987148;28;20027;-41
2023/05/21 00:52:47;;;;;;;14.15;10.60;;;;;;;;;;4984702;28;20027;-42
2023/05/21 00:55:13;;;;;;;13.88;10.90;;;;;;;;;;4985533;28;20014;-44
2023/05/21 00:57:40;;;;;;;13.45;11.10;;;;;;;;;;4984364;28;20126;-40
2023/05/21 01:00:07;;;;;;;11.90;10.73;;;;;;;;;;4988135;28;20041;-40
2023/05/21 01:02:35;;;;;;;14.27;12.15;;;;;;;;;;4988781;28;20069;-40
2023/05/21 01:05:03;;;;;;;14.15;12.23;;;;;;;;;;4990268;28;20049;-41
2023/05/21 01:07:28;;;;;;;13.07;11.77;;;;;;;;;;4984853;28;20045;-41
2023/05/21 01:09:54;;;;;;;13.88;12.23;;;;;;;;;;4982977;28;20027;-41
2023/05/21 01:12:20;;;;;;;13.68;12.20;;;;;;;;;;4983509;28;20043;-43
2023/05/21 01:14:46;;;;;;;13.18;11.60;;;;;;;;;;4980333;28;20125;-41
2023/05/21 01:17:12;;;;;;;15.07;12.93;;;;;;;;;;4983504;28;20125;-44
2023/05/21 01:19:38;;;;;;;13.90;12.50;;;;;;;;;;4985197;28;20058;-43
2023/05/21 01:22:06;;;;;;;19.88;12.88;;;;;;;;;;4981249;28;20065;-41
2023/05/21 01:24:32;;;;;;;14.68;12.98;;;;;;;;;;4984437;28;20081;-40
2023/05/21 01:26:59;;;;;;;16.42;13.07;;;;;;;;;;4984788;28;20065;-43
2023/05/21 01:29:25;;;;;;;16.25;13.50;;;;;;;;;;4986967;28;20030;-41
2023/05/21 01:32:27;;;;;;;15.30;13.20;;;;;;;;;;4983142;28;20074;-42
2023/05/21 01:35:06;;;;;;;17.27;13.57;;;;;;;;;;4987171;28;20065;-41
2023/05/21 01:37:55;;;;;;;13.25;11.95;;;;;;;;;;4984160;28;20035;-41
2023/05/21 01:40:37;;;;;;;13.75;12.35;;;;;;;;;;4980663;28;20529;-42
2023/05/21 01:43:04;;;;;;;18.20;12.80;;;;;;;;;;4979909;28;20454;-47
2023/05/21 01:45:30;;;;;;;16.17;13.05;;;;;;;;;;4984894;28;20096;-43
2023/05/21 01:47:57;;;;;;;14.20;12.70;;;;;;;;;;4983348;28;20058;-41
2023/05/21 01:50:23;;;;;;;14.55;13.02;;;;;;;;;;4984515;28;20091;-47
2023/05/21 01:52:51;;;;;;;18.15;12.85;;;;;;;;;;4985321;28;20367;-42
2023/05/21 01:55:17;;;;;;;14.30;12.80;;;;;;;;;;4984032;28;20034;-41
2023/05/21 01:57:42;;;;;;;15.20;12.00;;;;;;;;;;4984694;28;20057;-41
2023/05/21 02:00:09;;;;;;;16.27;12.82;;;;;;;;;;4982686;28;20109;-41
2023/05/21 02:02:35;;;;;;;14.73;13.00;;;;;;;;;;4984273;28;20077;-41
2023/05/21 02:05:00;;;;;;;15.07;12.77;;;;;;;;;;4985992;28;20030;-43
2023/05/21 02:07:27;;;;;;;18.75;13.55;;;;;;;;;;4982138;28;20784;-40
2023/05/21 02:09:53;;;;;;;15.30;13.70;;;;;;;;;;4982515;28;20110;-41
2023/05/21 02:12:18;;;;;;;15.13;13.35;;;;;;;;;;4982591;28;20035;-41
2023/05/21 02:14:47;;;;;;;14.40;12.95;;;;;;;;;;4984616;28;20470;-46
2023/05/21 02:17:13;;;;;;;17.98;12.45;;;;;;;;;;4985299;28;20045;-43
2023/05/21 02:19:38;;;;;;;16.20;13.32;;;;;;;;;;4985023;28;20026;-44
2023/05/21 02:22:04;;;;;;;13.88;12.38;;;;;;;;;;4984081;28;20034;-44
2023/05/21 02:24:30;;;;;;;13.77;12.38;;;;;;;;;;4982548;28;20121;-44
2023/05/21 02:26:55;;;;;;;14.30;12.82;;;;;;;;;;4982423;28;23178;-44
2023/05/21 02:29:20;;;;;;;13.93;12.50;;;;;;;;;;4984106;28;20768;-43
2023/05/21 02:31:46;;;;;;;12.77;11.45;;;;;;;;;;4982871;28;20042;-43
2023/05/21 02:34:11;;;;;;;13.85;12.25;;;;;;;;;;4984010;28;20520;-41
2023/05/21 02:36:36;;;;;;;15.88;11.60;;;;;;;;;;4983222;28;20039;-41
2023/05/21 02:39:02;;;;;;;13.15;11.85;;;;;;;;;;4982196;28;20846;-42
2023/05/21 02:41:28;;;;;;;13.15;11.77;;;;;;;;;;4984648;28;20053;-42
2023/05/21 02:43:53;;;;;;;12.93;11.63;;;;;;;;;;4981542;28;20093;-41
2023/05/21 02:46:18;;;;;;;13.20;11.65;;;;;;;;;;4983944;28;20506;-46
2023/05/21 02:48:44;;;;;;;11.88;10.77;;;;;;;;;;4982868;28;20042;-43
2023/05/21 02:51:09;;;;;;;12.25;10.98;;;;;;;;;;4983953;28;20503;-41
2023/05/21 02:53:34;;;;;;;13.52;11.95;;;;;;;;;;4983841;28;20361;-41
2023/05/21 02:56:00;;;;;;;13.43;11.18;;;;;;;;;;4978677;28;20042;-41
2023/05/21 02:58:26;;;;;;;13.05;11.82;;;;;;;;;;4982171;28;20057;-43
2023/05/21 03:00:52;;;;;;;13.05;11.90;;;;;;;;;;4983481;28;20049;-43
2023/05/21 03:03:17;;;;;;;13.10;11.70;;;;;;;;;;4983108;28;20113;-44
2023/05/21 03:05:44;;;;;;;15.30;11.65;;;;;;;;;;4980544;28;20129;-44
2023/05/21 03:08:10;;;;;;;12.68;11.38;;;;;;;;;;4984178;28;20595;-43
2023/05/21 03:10:35;;;;;;;14.48;11.30;;;;;;;;;;4982683;28;20027;-41
2023/05/21 03:13:03;;;;;;;14.15;11.77;;;;;;;;;;4982068;28;20022;-41
2023/05/21 03:15:32;;;;;;;13.15;11.50;;;;;;;;;;4979023;28;20302;-41
2023/05/21 03:17:58;;;;;;;12.98;11.70;;;;;;;;;;4983090;28;20104;-43
2023/05/21 03:20:23;;;;;;;14.07;11.57;;;;;;;;;;4983587;28;20472;-40
2023/05/21 03:22:48;;;;;;;11.95;10.85;;;;;;;;;;4982882;28;20022;-41
2023/05/21 03:25:14;;;;;;;14.48;11.45;;;;;;;;;;4981407;28;20491;-40
2023/05/21 03:27:39;;;;;;;12.88;11.68;;;;;;;;;;4983107;28;20035;-43
2023/05/21 03:30:05;;;;;;;11.93;10.82;;;;;;;;;;4980743;28;20045;-41
2023/05/21 03:32:36;;;;;;;12.25;10.82;;;;;;;;;;4981407;28;20049;-44
2023/05/21 03:35:02;;;;;;;11.98;10.75;;;;;;;;;;4982842;28;20642;-41
2023/05/21 03:37:28;;;;;;;11.85;10.70;;;;;;;;;;4982201;28;20084;-44
2023/05/21 03:39:53;;;;;;;12.45;11.23;;;;;;;;;;4984963;28;20428;-41
2023/05/21 03:42:18;;;;;;;15.30;11.02;;;;;;;;;;4984609;28;20052;-47
2023/05/21 03:44:44;;;;;;;11.23;10.23;;;;;;;;;;4983221;28;20081;-42
2023/05/21 03:47:10;;;;;;;10.98;9.90;;;;;;;;;;4985098;28;20093;-43
2023/05/21 03:49:35;;;;;;;13.55;10.35;;;;;;;;;;4981386;28;20399;-47
2023/05/21 03:52:00;;;;;;;12.07;10.50;;;;;;;;;;4982009;28;20038;-40
2023/05/21 03:54:26;;;;;;;10.80;9.80;;;;;;;;;;4979889;28;20041;-41
2023/05/21 03:56:51;;;;;;;12.35;9.75;;;;;;;;;;4984092;28;20519;-46
2023/05/21 03:59:16;;;;;;;10.80;9.80;;;;;;;;;;4985375;28;20030;-42
2023/05/21 04:01:42;;;;;;;10.38;9.27;;;;;;;;;;4981701;28;20054;-42
2023/05/21 04:04:07;;;;;;;11.07;9.25;;;;;;;;;;4980074;28;20030;-43
2023/05/21 04:06:33;;;;;;;9.52;8.73;;;;;;;;;;4982866;28;20039;-42
2023/05/21 04:08:58;;;;;;;10.02;9.13;;;;;;;;;;4987711;28;20038;-42
2023/05/21 04:11:23;;;;;;;10.27;9.38;;;;;;;;;;4987409;28;20505;-41
2023/05/21 04:13:49;;;;;;;15.60;9.10;;;;;;;;;;4987826;28;20045;-41
2023/05/21 04:16:17;;;;;;;14.20;9.57;;;;;;;;;;4983225;28;20503;-44
2023/05/21 04:18:43;;;;;;;11.55;9.02;;;;;;;;;;4985561;28;20039;-41
2023/05/21 04:21:08;;;;;;;9.55;8.65;;;;;;;;;;4986201;28;20518;-42
2023/05/21 04:23:35;;;;;;;10.38;9.45;;;;;;;;;;4985245;28;20022;-41
2023/05/21 04:26:01;;;;;;;9.52;8.57;;;;;;;;;;4981535;28;20096;-43
2023/05/21 04:28:27;;;;;;;10.45;8.35;;;;;;;;;;4981978;28;20492;-46
2023/05/21 04:30:55;;;;;;;9.68;8.88;;;;;;;;;;4986645;28;20086;-46
2023/05/21 04:33:24;;;;;;;10.15;8.88;;;;;;;;;;4983371;28;20034;-40
2023/05/21 04:35:50;;;;;;;11.52;9.02;;;;;;;;;;4985780;28;20042;-43
2023/05/21 04:38:18;;;;;;;10.30;9.18;;;;;;;;;;4986512;28;20034;-40
2023/05/21 04:40:50;;;;;;;11.35;9.60;;;;;;;;;;4984494;28;20038;-43
2023/05/21 04:43:15;;;;;;;10.07;9.10;;;;;;;;;;4986245;28;20109;-44
2023/05/21 04:45:42;;;;;;;9.60;8.80;;;;;;;;;;4988516;28;20137;-40
2023/05/21 04:48:07;;;;;;;10.50;9.45;;;;;;;;;;4983788;28;20072;-40
2023/05/21 04:50:33;;;;;;;10.98;9.88;;;;;;;;;;4984403;28;20061;-40
2023/05/21 04:52:58;;;;;;;12.52;9.35;;;;;;;;;;4984083;28;20085;-43
2023/05/21 04:55:24;;;;;;;10.85;9.85;;;;;;;;;;4984298;28;20030;-41
2023/05/21 04:57:50;;;;;;;10.35;9.40;;;;;;;;;;4990498;28;20502;-40
2023/05/21 05:00:16;;;;;;;10.23;9.02;;;;;;;;;;4985385;28;20023;-41
2023/05/21 05:02:41;;;;;;;15.18;9.32;;;;;;;;;;4984573;28;20038;-43
2023/05/21 05:05:07;;;;;;;16.20;9.82;;;;;;;;;;4985623;28;20060;-41
2023/05/21 05:07:33;;;;;;;18.25;10.80;;;;;;;;;;4986240;28;20518;-42
2023/05/21 05:09:58;;;;;;;11.52;10.15;;;;;;;;;;4986176;28;20088;-41
2023/05/21 05:12:23;;;;;;;16.65;10.55;;;;;;;;;;4984953;28;20434;-48
2023/05/21 05:14:49;;;;;;;12.32;10.30;;;;;;;;;;4984224;28;20038;-46
2023/05/21 05:17:14;;;;;;;10.90;9.90;;;;;;;;;;4981743;28;20384;-43
2023/05/21 05:19:39;;;;;;;11.23;10.02;;;;;;;;;;4985692;28;20424;-41
2023/05/21 05:22:06;;;;;;;11.32;10.05;;;;;;;;;;4985379;28;20080;-41
2023/05/21 05:24:31;;;;;;;9.93;8.82;;;;;;;;;;4982050;28;20121;-41
2023/05/21 05:26:56;;;;;;;12.52;10.02;;;;;;;;;;4982659;28;20125;-40
2023/05/21 05:29:22;;;;;;;12.57;9.65;;;;;;;;;;4984595;28;20444;-41
2023/05/21 05:31:47;;;;;;;12.88;10.00;;;;;;;;;;4986142;28;20043;-41
2023/05/21 05:34:13;;;;;;;10.27;9.27;;;;;;;;;;4982935;28;20088;-41
2023/05/21 05:36:38;;;;;;;10.73;9.10;;;;;;;;;;4984418;28;20042;-41
2023/05/21 05:39:04;;;;;;;11.25;10.02;;;;;;;;;;4984777;28;20038;-40
2023/05/21 05:41:29;;;;;;;10.68;9.57;;;;;;;;;;4985509;28;20042;-41
2023/05/21 05:43:55;;;;;;;20.85;9.50;;;;;;;;;;4984349;28;20030;-41
2023/05/21 05:46:20;;;;;;;9.85;9.02;;;;;;;;;;4983174;28;20042;-42
2023/05/21 05:48:46;;;;;;;10.65;9.30;;;;;;;;;;4985974;28;20062;-45
2023/05/21 05:51:11;;;;;;;10.98;9.55;;;;;;;;;;4983892;28;20049;-44
2023/05/21 05:53:37;;;;;;;10.13;9.13;;;;;;;;;;4985065;28;20039;-45
2023/05/21 05:56:02;;;;;;;10.77;9.63;;;;;;;;;;4983649;28;20387;-43
2023/05/21 05:58:28;;;;;;;10.45;9.43;;;;;;;;;;4985636;28;20034;-41
2023/05/21 06:00:54;;;;;;;10.48;9.50;;;;;;;;;;4981678;28;20082;-41
2023/05/21 06:03:19;;;;;;;13.95;10.50;;;;;;;;;;4988942;28;20107;-44
2023/05/21 06:05:45;;;;;;;10.65;9.55;;;;;;;;;;4984402;28;20053;-42
2023/05/21 06:08:10;;;;;;;11.48;10.25;;;;;;;;;;4983152;28;20061;-41
2023/05/21 06:10:36;;;;;;;15.80;9.82;;;;;;;;;;4981058;28;20035;-41
2023/05/21 06:13:01;;;;;;;11.60;10.07;;;;;;;;;;4984916;28;20034;-43
2023/05/21 06:15:27;;;;;;;10.85;9.75;;;;;;;;;;4981613;28;20042;-46
2023/05/21 06:17:52;;;;;;;10.82;9.82;;;;;;;;;;4982194;28;20026;-42
2023/05/21 06:20:17;;;;;;;10.88;9.77;;;;;;;;;;4984862;28;20037;-42
2023/05/21 06:22:43;;;;;;;12.73;9.85;;;;;;;;;;4983170;28;20066;-41
2023/05/21 06:25:10;;;;;;;12.32;9.75;;;;;;;;;;4983006;28;20034;-44
2023/05/21 06:27:36;;;;;;;18.10;9.88;;;;;;;;;;4984942;28;20073;-45
2023/05/21 06:30:02;;;;;;;11.27;10.10;;;;;;;;;;4982640;28;20033;-44
2023/05/21 06:32:27;;;;;;;10.70;9.77;;;;;;;;;;4981281;28;20042;-42
2023/05/21 06:34:53;;;;;;;12.57;10.85;;;;;;;;;;4985850;28;20032;-43
2023/05/21 06:37:20;;;;;;;10.38;9.43;;;;;;;;;;4983323;28;20046;-42
2023/05/21 06:39:45;;;;;;;10.30;9.40;;;;;;;;;;4985168;28;20034;-43
2023/05/21 06:42:10;;;;;;;9.90;9.10;;;;;;;;;;4983965;28;20043;-43
2023/05/21 06:44:36;;;;;;;10.25;9.35;;;;;;;;;;4982416;28;20038;-41
2023/05/21 06:47:01;;;;;;;13.27;9.73;;;;;;;;;;4981823;28;20046;-42
2023/05/21 06:49:26;;;;;;;15.07;9.52;;;;;;;;;;4983802;28;20499;-41
2023/05/21 06:51:52;;;;;;;9.75;8.95;;;;;;;;;;4984669;28;20027;-41
2023/05/21 06:54:17;;;;;;;10.70;9.60;;;;;;;;;;4983946;28;20029;-42
2023/05/21 06:56:43;;;;;;;10.80;9.80;;;;;;;;;;4982957;28;20747;-42
2023/05/21 06:59:08;;;;;;;11.85;9.48;;;;;;;;;;4982642;28;20042;-45
2023/05/21 07:01:33;;;;;;;10.25;9.18;;;;;;;;;;4984769;28;20403;-44
2023/05/21 07:03:59;;;;;;;11.25;9.52;;;;;;;;;;4986797;28;20106;-40
2023/05/21 07:06:24;;;;;;;11.60;10.07;;;;;;;;;;4984837;28;20034;-42
2023/05/21 07:08:50;;;;;;;10.27;9.32;;;;;;;;;;4981006;28;20037;-42
2023/05/21 07:11:15;;;;;;;22.40;9.82;;;;;;;;;;4981231;28;20097;-47
2023/05/21 07:13:41;;;;;;;11.35;10.23;;;;;;;;;;4978500;28;20399;-43
2023/05/21 07:16:06;;;;;;;9.80;8.98;;;;;;;;;;4982890;28;20048;-43
2023/05/21 07:18:32;;;;;;;11.25;10.13;;;;;;;;;;4982434;28;20042;-45
2023/05/21 07:20:58;;;;;;;11.13;9.23;;;;;;;;;;4980531;28;20046;-42
2023/05/21 07:23:23;;;;;;;12.50;10.15;;;;;;;;;;4983385;28;20069;-42
2023/05/21 07:25:48;;;;;;;10.55;9.65;;;;;;;;;;4981441;28;20517;-43
2023/05/21 07:28:14;;;;;;;10.70;9.48;;;;;;;;;;4984064;28;20030;-44
2023/05/21 07:30:39;;;;;;;10.35;9.25;;;;;;;;;;4983881;28;20736;-42
2023/05/21 07:33:05;;;;;;;14.85;13.32;;;;;;;;;;4978354;28;20026;-43
2023/05/21 07:35:30;;;;;;;12.45;11.15;;;;;;;;;;4982025;28;20506;-41
2023/05/21 07:37:55;;;;;;;12.27;10.48;;;;;;;;;;4980652;28;20435;-44
2023/05/21 07:40:21;;;;;;;17.95;10.93;;;;;;;;;;4981196;28;20076;-44
2023/05/21 07:42:46;;;;;;;12.98;11.85;;;;;;;;;;4984984;28;20615;-42
2023/05/21 07:45:12;;;;;;;11.90;10.75;;;;;;;;;;4984824;28;20031;-43
2023/05/21 07:47:37;;;;;;;15.57;10.75;;;;;;;;;;4976218;28;20043;-48
2023/05/21 07:50:03;;;;;;;14.05;12.57;;;;;;;;;;4976364;28;20488;-45
2023/05/21 07:52:28;;;;;;;12.82;10.52;;;;;;;;;;4983044;28;20046;-44
2023/05/21 07:54:53;;;;;;;16.88;11.57;;;;;;;;;;4980207;28;20030;-43
2023/05/21 07:57:20;;;;;;;12.98;11.40;;;;;;;;;;4984943;28;20396;-43
2023/05/21 07:59:45;;;;;;;14.15;11.43;;;;;;;;;;4979000;28;20157;-42
2023/05/21 08:02:11;;;;;;;11.43;10.35;;;;;;;;;;4985589;28;20682;-41
2023/05/21 08:04:37;;;;;;;11.15;9.77;;;;;;;;;;4985860;28;20023;-41
2023/05/21 08:07:02;;;;;;;12.75;9.93;;;;;;;;;;4981566;28;20038;-41
2023/05/21 08:09:28;;;;;;;12.55;9.88;;;;;;;;;;4982607;28;20109;-42
2023/05/21 08:11:53;;;;;;;11.57;10.18;;;;;;;;;;4985437;28;20167;-41
2023/05/21 08:14:19;;;;;;;15.90;10.35;;;;;;;;;;4983596;28;20029;-42
2023/05/21 08:16:45;;;;;;;11.23;10.02;;;;;;;;;;4981112;28;20472;-42
2023/05/21 08:19:10;;;;;;;14.73;11.07;;;;;;;;;;4983654;28;20447;-44
2023/05/21 08:21:36;;;;;;;15.07;11.02;;;;;;;;;;4983915;28;20043;-47
2023/05/21 08:24:01;;;;;;;12.27;11.10;;;;;;;;;;4979545;28;20029;-44
2023/05/21 08:26:27;;;;;;;14.50;10.82;;;;;;;;;;4981132;28;20038;-44
2023/05/21 08:28:53;;;;;;;11.68;10.50;;;;;;;;;;4981531;28;20049;-42
2023/05/21 08:31:18;;;;;;;20.83;11.40;;;;;;;;;;4983301;28;20100;-46
2023/05/21 08:33:51;;;;;;;11.93;10.63;;;;;;;;;;4983267;28;20436;-44
2023/05/21 08:36:16;;;;;;;11.55;10.10;;;;;;;;;;4981608;28;20423;-42
2023/05/21 08:38:42;;;;;;;11.48;10.20;;;;;;;;;;4984360;28;20056;-44
2023/05/21 08:41:09;;;;;;;9.43;8.65;;;;;;;;;;4980108;28;20049;-41
2023/05/21 08:43:36;;;;;;;9.73;8.93;;;;;;;;;;4982122;28;20430;-42
2023/05/21 08:46:03;;;;;;;9.30;8.48;;;;;;;;;;4977784;28;20042;-43
2023/05/21 08:48:30;;;;;;;8.73;8.02;;;;;;;;;;4982593;28;20097;-43
2023/05/21 08:50:55;;;;;;;9.27;8.38;;;;;;;;;;4981311;28;20042;-42
2023/05/21 08:53:22;;;;;;;8.73;7.90;;;;;;;;;;4985350;28;20030;-43
2023/05/21 08:55:50;;;;;;;9.80;8.30;;;;;;;;;;4984107;28;20511;-44
2023/05/21 08:58:17;;;;;;;9.38;7.93;;;;;;;;;;4986118;28;20105;-43
2023/05/21 09:00:42;;;;;;;9.23;8.43;;;;;;;;;;4982542;28;20039;-42
2023/05/21 09:03:11;;;;;;;10.35;8.15;;;;;;;;;;4986029;28;20038;-42
2023/05/21 09:05:44;;;;;;;9.45;8.20;;;;;;;;;;4988548;28;20026;-47
2023/05/21 09:08:17;;;;;;;7.80;7.20;;;;;;;;;;4984513;28;20391;-47
2023/05/21 09:10:50;;;;;;;10.05;8.07;;;;;;;;;;4984357;28;20129;-50
2023/05/21 09:13:17;;;;;;;8.30;7.68;;;;;;;;;;4981590;28;20033;-46
2023/05/21 09:15:46;;;;;;;9.88;7.88;;;;;;;;;;4986313;28;20046;-43
2023/05/21 09:18:12;;;;;;;9.35;8.55;;;;;;;;;;4984765;28;20034;-43
2023/05/21 09:20:38;;;;;;;8.65;7.95;;;;;;;;;;4985537;28;22407;-41
2023/05/21 09:23:05;;;;;;;9.13;8.32;;;;;;;;;;4986810;28;20037;-44
2023/05/21 09:25:31;;;;;;;11.55;8.30;;;;;;;;;;4983060;28;20062;-42
2023/05/21 09:27:58;;;;;;;8.98;8.20;;;;;;;;;;4984827;28;20375;-44
2023/05/21 09:30:23;;;;;;;7.60;6.90;;;;;;;;;;4983767;28;20391;-41
2023/05/21 09:32:57;;;;;;;7.72;6.68;;;;;;;;;;4984310;28;20042;-43
2023/05/21 09:35:22;;;;;;;8.45;7.32;;;;;;;;;;4988314;28;20081;-40
2023/05/21 09:37:49;;;;;;;11.55;7.45;;;;;;;;;;4985971;28;20476;-42
2023/05/21 09:40:19;;;;;;;9.80;8.80;;;;;;;;;;4986399;28;20034;-42
2023/05/21 09:42:54;;;;;;;9.07;8.20;;;;;;;;;;4986971;28;20462;-42
2023/05/21 09:45:21;;;;;;;7.28;6.65;;;;;;;;;;4981962;28;20035;-44
2023/05/21 09:47:48;;;;;;;9.77;7.28;;;;;;;;;;4985549;28;20030;-42
2023/05/21 09:50:18;;;;;;;8.02;7.22;;;;;;;;;;4987223;28;20030;-44
2023/05/21 09:52:44;;;;;;;7.10;6.40;;;;;;;;;;4985466;28;20050;-43
2023/05/21 09:55:13;;;;;;;8.70;8.00;;;;;;;;;;4985924;28;20030;-43
2023/05/21 09:57:41;;;;;;;11.07;8.45;;;;;;;;;;4982097;28;21594;-44
2023/05/21 10:00:07;;;;;;;8.45;7.57;;;;;;;;;;4985357;28;20480;-43
2023/05/21 10:02:36;;;;;;;9.10;8.30;;;;;;;;;;4982740;28;20039;-45
2023/05/21 10:05:04;;;;;;;11.00;7.80;;;;;;;;;;4987794;28;20106;-46
2023/05/21 10:07:31;;;;;;;7.93;7.32;;;;;;;;;;4983555;28;20039;-46
2023/05/21 10:09:59;;;;;;;8.45;5.70;;;;;;;;;;4982536;28;20085;-46
2023/05/21 10:12:26;;;;;;;7.75;6.88;;;;;;;;;;4981720;28;20046;-47
2023/05/21 10:14:57;;;;;;;10.40;6.20;;;;;;;;;;4981809;28;20461;-44
2023/05/21 10:17:23;;;;;;;8.38;6.38;;;;;;;;;;4983500;28;20093;-46
2023/05/21 10:19:50;;;;;;;8.10;5.68;;;;;;;;;;4986936;28;20037;-43
2023/05/21 10:22:15;;;;;;;6.22;5.70;;;;;;;;;;4979944;28;20090;-42
2023/05/21 10:24:42;;;;;;;6.82;6.20;;;;;;;;;;4983655;28;20022;-43
2023/05/21 10:27:08;;;;;;;8.95;6.25;;;;;;;;;;4984141;28;20160;-44
2023/05/21 10:29:35;;;;;;;8.20;7.50;;;;;;;;;;4985775;28;20101;-42
2023/05/21 10:32:02;;;;;;;9.13;8.30;;;;;;;;;;4979772;28;20038;-42
2023/05/21 10:34:29;;;;;;;12.20;11.00;;;;;;;;;;4985755;28;20046;-46
2023/05/21 10:36:56;;;;;;;13.18;11.70;;;;;;;;;;4984156;28;20074;-42
2023/05/21 10:39:24;;;;;;;9.27;8.45;;;;;;;;;;4985006;28;20056;-44
2023/05/21 10:42:05;;;;;;;18.40;8.52;;;;;;;;;;4984765;28;21184;-42
2023/05/21 10:44:37;;;;;;;9.20;8.02;;;;;;;;;;5014241;28;20034;-44
2023/05/21 10:47:15;;;;;;;8.82;7.88;;;;;;;;;;4979719;28;20061;-42
2023/05/21 10:50:03;;;;;;;9.75;8.77;;;;;;;;;;4978111;28;20026;-42
2023/05/21 10:53:06;;;;;;;13.75;8.98;;;;;;;;;;4978645;28;20457;-43
2023/05/21 10:55:41;;;;;;;9.65;8.52;;;;;;;;;;4979220;28;20432;-42
2023/05/21 10:58:22;;;;;;;9.38;8.48;;;;;;;;;;4985341;28;20055;-43
2023/05/21 11:00:47;;;;;;;9.50;8.52;;;;;;;;;;4982283;28;20034;-42
2023/05/21 11:03:14;;;;;;;8.68;7.80;;;;;;;;;;4984223;28;20105;-44
2023/05/21 11:05:40;;;;;;;13.48;8.40;;;;;;;;;;4984290;28;20510;-45
2023/05/21 11:08:21;;;;;;;9.25;8.30;;;;;;;;;;4984563;28;22345;-42
2023/05/21 11:10:56;;;;;;;8.52;7.72;;;;;;;;;;4979626;28;23029;-46
2023/05/21 11:13:22;;;;;;;8.35;7.65;;;;;;;;;;4983378;28;20022;-44
2023/05/21 11:15:56;;;;;;;8.82;7.15;;;;;;;;;;4984551;28;20061;-47
2023/05/21 11:19:02;;;;;;;8.35;7.47;;;;;;;;;;4984514;28;21553;-44
2023/05/21 11:21:29;;;;;;;11.73;8.15;;;;;;;;;;4979697;28;20042;-46
2023/05/21 11:24:05;;;;;;;10.15;9.15;;;;;;;;;;4982491;28;20026;-43
2023/05/21 11:26:57;;;;;;;10.10;9.10;;;;;;;;;;4983960;28;20045;-44
2023/05/21 11:29:32;;;;;;;12.68;11.48;;;;;;;;;;4985955;28;20045;-43
2023/05/21 11:32:01;;;;;;;14.65;12.50;;;;;;;;;;4984718;28;20070;-42
2023/05/21 11:34:36;;;;;;;17.13;13.80;;;;;;;;;;4982207;28;20037;-43
2023/05/21 11:37:22;;;;;;;14.63;12.25;;;;;;;;;;4983090;28;20079;-42
2023/05/21 11:39:48;;;;;;;14.82;12.93;;;;;;;;;;4979916;28;20058;-43
2023/05/21 11:42:50;;;;;;;17.38;14.02;;;;;;;;;;4981380;28;20704;-43
2023/05/21 11:45:18;;;;;;;14.07;12.68;;;;;;;;;;4922516;29;20116;-42
2023/05/21 11:47:45;;;;;;;15.48;14.10;;;;;;;;;;4923522;29;20613;-42
2023/05/21 11:50:12;;;;;;;15.48;13.98;;;;;;;;;;4925266;29;20093;-42
2023/05/21 11:52:39;;;;;;;17.73;15.88;;;;;;;;;;4924347;29;20039;-42
2023/05/21 11:55:06;;;;;;;20.35;16.88;;;;;;;;;;4925019;29;20102;-42
2023/05/21 11:57:31;;;;;;;19.13;14.15;;;;;;;;;;4924150;29;20452;-47
2023/05/21 11:59:58;;;;;;;20.38;16.88;;;;;;;;;;4925177;29;20056;-42
2023/05/21 12:02:27;;;;;;;15.55;14.02;;;;;;;;;;4925613;29;20043;-42
2023/05/21 12:04:52;;;;;;;18.27;13.45;;;;;;;;;;4924537;29;20059;-43
2023/05/21 12:07:19;;;;;;;18.67;14.07;;;;;;;;;;4922268;29;20560;-42
2023/05/21 12:09:49;;;;;;;16.45;14.38;;;;;;;;;;4921920;29;20167;-43
2023/05/21 12:12:20;;;;;;;17.13;14.50;;;;;;;;;;4924233;29;20048;-43
2023/05/21 12:14:47;;;;;;;17.55;15.70;;;;;;;;;;4922551;29;20071;-43
2023/05/21 12:17:24;;;;;;;16.55;14.77;;;;;;;;;;4920950;29;20444;-43
2023/05/21 12:19:53;;;;;;;17.38;15.57;;;;;;;;;;4924292;28;20075;-46
2023/05/21 12:22:20;;;;;;;19.90;14.30;;;;;;;;;;4981859;28;20074;-46
2023/05/21 12:24:47;;;;;;;20.52;16.50;;;;;;;;;;4981570;28;20023;-42
2023/05/21 12:27:15;;;;;;;16.38;14.73;;;;;;;;;;4980668;28;20149;-49
2023/05/21 12:29:45;;;;;;;20.52;18.25;;;;;;;;;;4985643;28;20025;-44
2023/05/21 12:32:14;;;;;;;17.75;16.05;;;;;;;;;;4985969;28;20138;-43
2023/05/21 12:34:47;;;;;;;25.42;21.52;;;;;;;;;;4986624;28;20026;-46
2023/05/21 12:37:31;;;;;;;24.63;19.98;;;;;;;;;;4982398;28;20046;-46
2023/05/21 12:40:00;;;;;;;29.40;24.08;;;;;;;;;;4986913;28;20035;-48
2023/05/21 12:42:33;;;;;;;28.08;22.48;;;;;;;;;;4986207;28;20446;-49
2023/05/21 12:44:59;;;;;;;23.92;21.42;;;;;;;;;;4984986;28;20030;-49
2023/05/21 12:47:26;;;;;;;23.52;19.90;;;;;;;;;;4983042;28;20074;-43
2023/05/21 12:49:59;;;;;;;21.30;18.83;;;;;;;;;;4987051;28;20037;-46
2023/05/21 12:52:26;;;;;;;15.02;13.60;;;;;;;;;;4987708;28;20035;-43
2023/05/21 12:54:53;;;;;;;18.20;15.18;;;;;;;;;;4988922;28;20042;-43
2023/05/21 12:57:39;;;;;;;14.95;13.40;;;;;;;;;;4986426;28;20066;-45
2023/05/21 13:00:07;;;;;;;14.07;12.55;;;;;;;;;;4982515;28;20082;-43
2023/05/21 13:02:37;;;;;;;14.85;13.32;;;;;;;;;;4987318;28;20112;-42
2023/05/21 13:05:08;;;;;;;14.35;12.98;;;;;;;;;;4985037;28;20073;-43
2023/05/21 13:07:37;;;;;;;18.00;13.35;;;;;;;;;;4987968;28;20038;-42
2023/05/21 13:10:04;;;;;;;24.30;13.80;;;;;;;;;;4986330;28;20470;-42
2023/05/21 13:12:31;;;;;;;15.95;13.85;;;;;;;;;;4982925;28;20529;-42
2023/05/21 13:15:00;;;;;;;17.25;14.52;;;;;;;;;;4983888;28;20034;-45
2023/05/21 13:17:26;;;;;;;14.75;13.20;;;;;;;;;;4985430;28;20042;-42
2023/05/21 13:20:07;;;;;;;14.52;12.30;;;;;;;;;;4983364;28;20046;-42
2023/05/21 13:22:35;;;;;;;15.40;12.55;;;;;;;;;;4985295;28;20077;-42
2023/05/21 13:25:01;;;;;;;12.27;10.98;;;;;;;;;;4986616;28;20114;-45
2023/05/21 13:27:27;;;;;;;13.75;11.30;;;;;;;;;;4987002;28;20038;-43
2023/05/21 13:29:52;;;;;;;13.45;12.25;;;;;;;;;;4982633;28;20594;-42
2023/05/21 13:32:18;;;;;;;18.45;13.02;;;;;;;;;;4983458;28;20046;-44
2023/05/21 13:34:43;;;;;;;14.30;12.82;;;;;;;;;;4981616;28;20031;-44
2023/05/21 13:37:08;;;;;;;15.63;12.38;;;;;;;;;;4986954;28;20066;-43
2023/05/21 13:39:34;;;;;;;22.75;13.32;;;;;;;;;;4986446;28;20128;-47
2023/05/21 13:42:00;;;;;;;15.52;12.80;;;;;;;;;;4985746;28;20121;-47
2023/05/21 13:44:25;;;;;;;16.92;12.60;;;;;;;;;;4983777;28;20030;-46
2023/05/21 13:46:51;;;;;;;17.75;12.77;;;;;;;;;;4983851;28;20035;-42
2023/05/21 13:49:16;;;;;;;14.88;12.60;;;;;;;;;;4983309;28;20519;-44
2023/05/21 13:51:42;;;;;;;14.75;12.25;;;;;;;;;;4983647;28;20042;-45
2023/05/21 13:54:07;;;;;;;15.77;13.32;;;;;;;;;;4984113;28;20097;-41
2023/05/21 13:56:32;;;;;;;16.45;12.63;;;;;;;;;;4981580;28;20101;-42
2023/05/21 13:58:58;;;;;;;13.98;10.73;;;;;;;;;;4984270;28;20034;-41
2023/05/21 14:01:24;;;;;;;13.63;12.32;;;;;;;;;;4985387;28;20056;-42
2023/05/21 14:03:49;;;;;;;13.23;11.90;;;;;;;;;;4991131;28;20096;-42
2023/05/21 14:06:15;;;;;;;16.58;11.05;;;;;;;;;;4985851;28;20100;-42
2023/05/21 14:08:40;;;;;;;17.02;10.80;;;;;;;;;;4985215;28;20467;-42
2023/05/21 14:11:06;;;;;;;9.73;8.73;;;;;;;;;;4984223;28;20066;-46
2023/05/21 14:13:31;;;;;;;12.63;9.10;;;;;;;;;;4984168;28;20058;-44
2023/05/21 14:15:56;;;;;;;12.57;9.70;;;;;;;;;;4984279;28;20093;-45
2023/05/21 14:18:22;;;;;;;14.35;10.30;;;;;;;;;;4979677;28;20125;-41
2023/05/21 14:20:47;;;;;;;10.15;9.25;;;;;;;;;;4984042;28;20034;-44
2023/05/21 14:23:13;;;;;;;8.60;7.80;;;;;;;;;;4980861;28;20482;-42
2023/05/21 14:25:40;;;;;;;8.52;7.63;;;;;;;;;;4986574;28;20415;-42
2023/05/21 14:28:05;;;;;;;9.70;8.70;;;;;;;;;;4984308;28;20480;-43